createdAt,value
2023-04-18T00:00:02.062Z,7.49
2023-04-18T00:01:02.342Z,7.45
2023-04-18T00:02:02.699Z,7.42
2023-04-18T00:03:04.690Z,7.41
2023-04-18T00:04:03.414Z,7.38
2023-04-18T00:05:03.708Z,7.34
2023-04-18T00:06:03.808Z,7.29
2023-04-18T00:07:04.086Z,7.26
2023-04-18T00:08:04.348Z,7.24
2023-04-18T00:09:04.637Z,7.22
2023-04-18T00:10:04.936Z,7.20
2023-04-18T00:11:05.228Z,7.17
2023-04-18T00:12:05.483Z,7.16
2023-04-18T00:13:05.733Z,7.15
2023-04-18T00:14:06.022Z,7.12
2023-04-18T00:15:06.335Z,7.12
2023-04-18T00:16:06.656Z,7.08
2023-04-18T00:17:07.037Z,7.07
2023-04-18T00:18:07.312Z,7.04
2023-04-18T00:19:07.498Z,6.98
2023-04-18T00:20:07.786Z,6.95
2023-04-18T00:21:08.112Z,6.95
2023-04-18T00:22:08.354Z,6.91
2023-04-18T00:23:08.648Z,6.90
2023-04-18T00:24:08.926Z,6.87
2023-04-18T00:25:09.177Z,6.87
2023-04-18T00:26:09.445Z,6.86
2023-04-18T00:27:09.744Z,6.86
2023-04-18T00:28:10.038Z,6.87
2023-04-18T00:29:10.281Z,6.84
2023-04-18T00:30:10.546Z,6.84
2023-04-18T00:31:10.888Z,6.83
2023-04-18T00:32:11.105Z,6.81
2023-04-18T00:33:11.414Z,6.80
2023-04-18T00:34:11.900Z,6.79
2023-04-18T00:35:11.983Z,6.76
2023-04-18T00:36:12.242Z,6.73
2023-04-18T00:37:12.562Z,6.73
2023-04-18T00:38:12.826Z,6.71
2023-04-18T00:39:13.103Z,6.71
2023-04-18T00:40:13.448Z,6.65
2023-04-18T00:41:13.696Z,6.63
2023-04-18T00:42:13.969Z,6.62
2023-04-18T00:43:14.260Z,6.62
2023-04-18T00:44:14.823Z,6.58
2023-04-18T00:45:14.802Z,6.56
2023-04-18T00:46:15.102Z,6.54
2023-04-18T00:47:15.382Z,6.53
2023-04-18T00:48:15.669Z,6.53
2023-04-18T00:49:15.943Z,6.48
2023-04-18T00:50:16.240Z,6.46
2023-04-18T00:51:16.502Z,6.43
2023-04-18T00:52:16.778Z,6.40
2023-04-18T00:53:17.072Z,6.36
2023-04-18T00:54:17.333Z,6.32
2023-04-18T00:55:17.666Z,6.30
2023-04-18T00:56:17.885Z,6.26
2023-04-18T00:57:18.138Z,6.21
2023-04-18T00:58:18.435Z,6.16
2023-04-18T00:59:18.743Z,6.11
2023-04-18T01:00:19.049Z,6.10
2023-04-18T01:01:19.353Z,6.06
2023-04-18T01:02:19.722Z,6.04
2023-04-18T01:03:19.993Z,6.03
2023-04-18T01:04:20.353Z,6.03
2023-04-18T01:05:20.408Z,6.04
2023-04-18T01:06:20.696Z,6.04
2023-04-18T01:07:21.009Z,6.06
2023-04-18T01:08:21.276Z,6.04
2023-04-18T01:09:21.556Z,6.01
2023-04-18T01:10:21.857Z,6.00
2023-04-18T01:11:22.136Z,6.00
2023-04-18T01:12:22.434Z,6.03
2023-04-18T01:13:22.730Z,5.98
2023-04-18T01:14:23.892Z,5.95
2023-04-18T01:15:23.328Z,5.92
2023-04-18T01:16:23.625Z,5.92
2023-04-18T01:17:24.002Z,5.91
2023-04-18T01:18:24.207Z,5.89
2023-04-18T01:19:24.505Z,5.86
2023-04-18T01:20:24.782Z,5.86
2023-04-18T01:21:25.030Z,5.86
2023-04-18T01:22:25.294Z,5.86
2023-04-18T01:23:25.577Z,5.86
2023-04-18T01:24:25.891Z,5.89
2023-04-18T01:25:26.177Z,5.88
2023-04-18T01:26:26.450Z,5.85
2023-04-18T01:27:26.730Z,5.85
2023-04-18T01:28:27.953Z,5.83
2023-04-18T01:29:27.362Z,5.81
2023-04-18T01:30:27.636Z,5.78
2023-04-18T01:31:27.929Z,5.75
2023-04-18T01:32:28.208Z,5.73
2023-04-18T01:33:28.455Z,5.70
2023-04-18T01:34:28.751Z,5.64
2023-04-18T01:35:29.065Z,5.60
2023-04-18T01:36:29.335Z,5.57
2023-04-18T01:37:29.599Z,5.50
2023-04-18T01:38:29.877Z,5.49
2023-04-18T01:39:30.177Z,5.46
2023-04-18T01:40:30.474Z,5.45
2023-04-18T01:41:30.788Z,5.41
2023-04-18T01:42:31.085Z,5.41
2023-04-18T01:43:31.356Z,5.43
2023-04-18T01:44:31.645Z,5.46
2023-04-18T01:45:31.959Z,5.45
2023-04-18T01:46:32.272Z,5.45
2023-04-18T01:47:32.565Z,5.41
2023-04-18T01:48:32.848Z,5.43
2023-04-18T01:49:33.119Z,5.40
2023-04-18T01:50:33.440Z,5.38
2023-04-18T01:51:33.717Z,5.34
2023-04-18T01:52:33.992Z,5.30
2023-04-18T01:53:34.276Z,5.27
2023-04-18T01:54:34.562Z,5.23
2023-04-18T01:55:34.898Z,5.22
2023-04-18T01:56:35.129Z,5.19
2023-04-18T01:57:35.395Z,5.17
2023-04-18T01:58:35.661Z,5.14
2023-04-18T01:59:35.964Z,5.13
2023-04-18T02:00:36.683Z,5.12
2023-04-18T02:01:36.602Z,5.13
2023-04-18T02:02:37.005Z,5.09
2023-04-18T02:03:37.352Z,5.05
2023-04-18T02:04:37.459Z,5.05
2023-04-18T02:05:37.790Z,5.04
2023-04-18T02:06:38.039Z,5.04
2023-04-18T02:07:38.290Z,5.05
2023-04-18T02:08:38.543Z,5.07
2023-04-18T02:09:38.837Z,5.04
2023-04-18T02:10:39.170Z,5.07
2023-04-18T02:11:39.431Z,5.09
2023-04-18T02:12:39.723Z,5.07
2023-04-18T02:13:40.014Z,5.09
2023-04-18T02:14:40.277Z,5.10
2023-04-18T02:15:40.583Z,5.10
2023-04-18T02:16:40.927Z,5.12
2023-04-18T02:17:41.246Z,5.10
2023-04-18T02:18:41.482Z,5.12
2023-04-18T02:19:41.771Z,5.12
2023-04-18T02:20:42.034Z,5.10
2023-04-18T02:21:42.329Z,5.07
2023-04-18T02:22:42.603Z,5.05
2023-04-18T02:23:42.864Z,5.04
2023-04-18T02:24:43.163Z,5.04
2023-04-18T02:25:43.443Z,5.02
2023-04-18T02:26:43.745Z,4.96
2023-04-18T02:27:44.041Z,4.92
2023-04-18T02:28:44.296Z,4.84
2023-04-18T02:29:44.590Z,4.83
2023-04-18T02:30:44.912Z,4.84
2023-04-18T02:31:45.226Z,4.80
2023-04-18T02:32:45.508Z,4.77
2023-04-18T02:33:45.754Z,4.79
2023-04-18T02:34:46.057Z,4.77
2023-04-18T02:35:46.386Z,4.77
2023-04-18T02:36:46.696Z,4.77
2023-04-18T02:37:46.989Z,4.76
2023-04-18T02:38:47.255Z,4.76
2023-04-18T02:39:47.525Z,4.75
2023-04-18T02:40:47.806Z,4.76
2023-04-18T02:41:48.102Z,4.77
2023-04-18T02:42:48.399Z,4.76
2023-04-18T02:43:48.685Z,4.76
2023-04-18T02:44:48.963Z,4.75
2023-04-18T02:45:49.316Z,4.73
2023-04-18T02:46:49.570Z,4.72
2023-04-18T02:47:55.637Z,4.72
2023-04-18T02:48:51.089Z,4.72
2023-04-18T02:49:50.401Z,4.67
2023-04-18T02:50:50.714Z,4.65
2023-04-18T02:51:51.001Z,4.64
2023-04-18T02:52:51.298Z,4.62
2023-04-18T02:53:51.551Z,4.59
2023-04-18T02:54:51.852Z,4.57
2023-04-18T02:55:52.109Z,4.57
2023-04-18T02:56:52.377Z,4.54
2023-04-18T02:57:52.667Z,4.54
2023-04-18T02:58:52.929Z,4.52
2023-04-18T02:59:53.184Z,4.50
2023-04-18T03:00:53.620Z,4.50
2023-04-18T03:01:53.821Z,4.46
2023-04-18T03:02:54.183Z,4.44
2023-04-18T03:03:54.368Z,4.44
2023-04-18T03:04:54.711Z,4.44
2023-04-18T03:05:54.956Z,4.44
2023-04-18T03:06:55.266Z,4.44
2023-04-18T03:07:55.578Z,4.42
2023-04-18T03:08:55.906Z,4.37
2023-04-18T03:09:56.107Z,4.33
2023-04-18T03:10:56.548Z,4.32
2023-04-18T03:11:56.736Z,4.32
2023-04-18T03:12:57.007Z,4.32
2023-04-18T03:13:57.296Z,4.32
2023-04-18T03:14:57.592Z,4.29
2023-04-18T03:15:57.912Z,4.29
2023-04-18T03:16:58.163Z,4.29
2023-04-18T03:17:58.453Z,4.29
2023-04-18T03:18:58.694Z,4.25
2023-04-18T03:19:58.992Z,4.24
2023-04-18T03:20:59.283Z,4.22
2023-04-18T03:21:59.548Z,4.21
2023-04-18T03:22:59.834Z,4.18
2023-04-18T03:24:00.095Z,4.16
2023-04-18T03:25:00.399Z,4.15
2023-04-18T03:26:00.677Z,4.14
2023-04-18T03:27:01.031Z,4.16
2023-04-18T03:28:01.265Z,4.14
2023-04-18T03:29:01.505Z,4.14
2023-04-18T03:30:01.872Z,4.10
2023-04-18T03:31:02.202Z,4.10
2023-04-18T03:32:02.410Z,4.08
2023-04-18T03:33:03.022Z,4.15
2023-04-18T03:34:02.986Z,4.16
2023-04-18T03:35:03.278Z,4.15
2023-04-18T03:36:03.534Z,4.14
2023-04-18T03:37:03.821Z,4.14
2023-04-18T03:38:04.115Z,4.12
2023-04-18T03:39:04.364Z,4.12
2023-04-18T03:40:04.626Z,4.06
2023-04-18T03:41:04.965Z,4.04
2023-04-18T03:42:05.181Z,4.04
2023-04-18T03:43:05.447Z,4.03
2023-04-18T03:44:05.706Z,4.04
2023-04-18T03:45:05.956Z,4.07
2023-04-18T03:46:06.334Z,4.10
2023-04-18T03:47:06.537Z,4.10
2023-04-18T03:48:06.841Z,4.08
2023-04-18T03:49:07.131Z,4.14
2023-04-18T03:50:07.416Z,4.12
2023-04-18T03:51:07.752Z,4.15
2023-04-18T03:52:07.976Z,4.16
2023-04-18T03:53:08.243Z,4.18
2023-04-18T03:54:08.512Z,4.21
2023-04-18T03:55:08.808Z,4.22
2023-04-18T03:56:09.129Z,4.21
2023-04-18T03:57:09.471Z,4.21
2023-04-18T03:58:09.738Z,4.21
2023-04-18T03:59:10.013Z,4.19
2023-04-18T04:00:10.307Z,4.18
2023-04-18T04:01:10.658Z,4.16
2023-04-18T04:02:10.942Z,4.15
2023-04-18T04:03:11.425Z,4.16
2023-04-18T04:04:11.651Z,4.18
2023-04-18T04:05:11.815Z,4.16
2023-04-18T04:06:12.097Z,4.16
2023-04-18T04:07:12.350Z,4.16
2023-04-18T04:08:12.647Z,4.15
2023-04-18T04:09:12.921Z,4.15
2023-04-18T04:10:13.196Z,4.16
2023-04-18T04:11:13.476Z,4.15
2023-04-18T04:12:13.756Z,4.14
2023-04-18T04:13:14.324Z,4.12
2023-04-18T04:14:14.657Z,4.08
2023-04-18T04:15:14.691Z,4.06
2023-04-18T04:16:15.073Z,4.04
2023-04-18T04:17:15.313Z,4.03
2023-04-18T04:18:16.546Z,4.03
2023-04-18T04:19:15.854Z,4.01
2023-04-18T04:20:16.133Z,4.00
2023-04-18T04:21:16.484Z,3.98
2023-04-18T04:22:16.757Z,3.96
2023-04-18T04:23:17.071Z,3.97
2023-04-18T04:24:17.352Z,3.97
2023-04-18T04:25:18.553Z,3.96
2023-04-18T04:26:17.896Z,3.96
2023-04-18T04:27:18.201Z,3.94
2023-04-18T04:28:18.500Z,3.94
2023-04-18T04:29:18.779Z,3.96
2023-04-18T04:30:19.090Z,3.97
2023-04-18T04:31:19.461Z,3.98
2023-04-18T04:32:19.763Z,3.98
2023-04-18T04:33:20.036Z,4.00
2023-04-18T04:34:20.349Z,4.00
2023-04-18T04:35:20.637Z,4.03
2023-04-18T04:36:20.994Z,4.01
2023-04-18T04:37:21.389Z,4.01
2023-04-18T04:38:21.505Z,4.00
2023-04-18T04:39:21.824Z,4.03
2023-04-18T04:40:22.152Z,4.03
2023-04-18T04:41:22.473Z,4.07
2023-04-18T04:42:22.778Z,4.07
2023-04-18T04:43:23.092Z,4.08
2023-04-18T04:44:23.469Z,4.12
2023-04-18T04:45:24.331Z,4.14
2023-04-18T04:46:24.125Z,4.15
2023-04-18T04:47:24.330Z,4.15
2023-04-18T04:48:24.488Z,4.16
2023-04-18T04:49:24.786Z,4.21
2023-04-18T04:50:25.084Z,4.24
2023-04-18T04:51:25.419Z,4.25
2023-04-18T04:52:25.716Z,4.32
2023-04-18T04:53:26.462Z,4.33
2023-04-18T04:54:26.268Z,4.36
2023-04-18T04:55:26.562Z,4.39
2023-04-18T04:56:26.858Z,4.43
2023-04-18T04:57:27.185Z,4.47
2023-04-18T04:58:27.522Z,4.52
2023-04-18T04:59:27.829Z,4.57
2023-04-18T05:00:28.112Z,4.62
2023-04-18T05:01:28.467Z,4.69
2023-04-18T05:02:28.958Z,4.73
2023-04-18T05:03:29.143Z,4.80
2023-04-18T05:04:29.469Z,4.86
2023-04-18T05:05:29.592Z,4.91
2023-04-18T05:06:29.896Z,4.96
2023-04-18T05:07:30.494Z,5.02
2023-04-18T05:08:30.461Z,5.10
2023-04-18T05:09:30.752Z,5.14
2023-04-18T05:10:31.089Z,5.20
2023-04-18T05:11:31.284Z,5.25
2023-04-18T05:12:31.594Z,5.31
2023-04-18T05:13:31.941Z,5.35
2023-04-18T05:14:32.171Z,5.41
2023-04-18T05:15:32.381Z,5.48
2023-04-18T05:16:32.733Z,5.52
2023-04-18T05:17:32.936Z,5.59
2023-04-18T05:18:35.028Z,5.66
2023-04-18T05:19:33.547Z,5.75
2023-04-18T05:20:33.883Z,5.83
2023-04-18T05:21:34.215Z,5.93
2023-04-18T05:22:34.419Z,6.04
2023-04-18T05:23:34.724Z,6.13
2023-04-18T05:24:35.127Z,6.29
2023-04-18T05:25:35.337Z,6.48
2023-04-18T05:26:35.773Z,6.69
2023-04-18T05:27:35.882Z,6.99
2023-04-18T05:28:36.079Z,7.35
2023-04-18T05:29:36.397Z,7.58
2023-04-18T05:30:36.615Z,7.79
2023-04-18T05:31:36.893Z,8.22
2023-04-18T05:32:37.196Z,8.75
2023-04-18T05:33:37.479Z,9.40
2023-04-18T05:34:38.875Z,10.18
2023-04-18T05:35:38.059Z,10.83
2023-04-18T05:36:46.158Z,11.29
2023-04-18T05:37:38.667Z,11.62
2023-04-18T05:38:38.987Z,12.06
2023-04-18T05:39:39.321Z,12.48
2023-04-18T05:40:39.666Z,12.69
2023-04-18T05:41:39.864Z,12.79
2023-04-18T05:42:40.213Z,12.82
2023-04-18T05:43:41.821Z,12.70
2023-04-18T05:44:40.761Z,12.59
2023-04-18T05:45:40.975Z,12.48
2023-04-18T05:46:41.339Z,12.54
2023-04-18T05:47:41.556Z,12.69
2023-04-18T05:48:41.855Z,13.09
2023-04-18T05:49:42.164Z,13.79
2023-04-18T05:50:42.476Z,14.43
2023-04-18T05:51:42.784Z,15.09
2023-04-18T05:52:43.135Z,15.72
2023-04-18T05:53:43.358Z,16.23
2023-04-18T05:54:43.739Z,16.75
2023-04-18T05:55:44.006Z,17.26
2023-04-18T05:56:44.321Z,17.70
2023-04-18T05:57:44.651Z,18.07
2023-04-18T05:58:44.988Z,18.50
2023-04-18T05:59:45.324Z,18.86
2023-04-18T06:00:45.613Z,19.24
2023-04-18T06:01:45.963Z,19.50
2023-04-18T06:02:46.477Z,19.63
2023-04-18T06:03:46.950Z,19.35
2023-04-18T06:04:47.042Z,19.25
2023-04-18T06:05:47.191Z,19.39
2023-04-18T06:06:47.370Z,19.51
2023-04-18T06:07:47.672Z,19.94
2023-04-18T06:08:48.015Z,20.38
2023-04-18T06:09:48.354Z,20.81
2023-04-18T06:10:48.695Z,21.11
2023-04-18T06:11:49.020Z,21.34
2023-04-18T06:12:49.365Z,21.63
2023-04-18T06:13:49.637Z,21.98
2023-04-18T06:14:49.924Z,22.29
2023-04-18T06:15:50.317Z,22.65
2023-04-18T06:16:50.512Z,22.83
2023-04-18T06:17:50.834Z,22.97
2023-04-18T06:18:51.199Z,23.12
2023-04-18T06:19:51.406Z,23.14
2023-04-18T06:20:51.775Z,23.22
2023-04-18T06:21:51.980Z,23.52
2023-04-18T06:22:52.326Z,23.95
2023-04-18T06:23:52.525Z,24.35
2023-04-18T06:24:52.876Z,24.60
2023-04-18T06:25:53.059Z,24.83
2023-04-18T06:26:53.829Z,24.97
2023-04-18T06:27:53.682Z,25.10
2023-04-18T06:28:53.938Z,24.97
2023-04-18T06:29:54.156Z,23.49
2023-04-18T06:30:54.480Z,23.14
2023-04-18T06:31:54.881Z,22.52
2023-04-18T06:32:55.045Z,22.65
2023-04-18T06:33:55.406Z,23.22
2023-04-18T06:34:55.688Z,23.60
2023-04-18T06:35:56.045Z,23.67
2023-04-18T06:36:56.272Z,24.02
2023-04-18T06:37:56.498Z,24.50
2023-04-18T06:38:56.888Z,24.31
2023-04-18T06:39:57.133Z,24.23
2023-04-18T06:40:57.327Z,24.47
2023-04-18T06:41:57.693Z,24.57
2023-04-18T06:42:57.950Z,24.82
2023-04-18T06:44:58.497Z,24.05
2023-04-18T06:45:58.706Z,24.63
2023-04-18T06:46:59.064Z,24.64
2023-04-18T06:47:59.339Z,22.44
2023-04-18T06:48:59.539Z,21.71
2023-04-18T06:49:59.797Z,21.60
2023-04-18T06:51:00.023Z,21.54
2023-04-18T06:52:00.376Z,19.63
2023-04-18T06:53:00.640Z,19.14
2023-04-18T06:54:00.899Z,18.83
2023-04-18T06:55:01.127Z,19.20
2023-04-18T06:56:01.516Z,19.95
2023-04-18T06:57:01.710Z,20.38
2023-04-18T06:58:02.057Z,19.76
2023-04-18T06:59:02.325Z,19.66
2023-04-18T07:00:02.540Z,19.02
2023-04-18T07:01:02.859Z,18.40
2023-04-18T07:02:03.169Z,18.80
2023-04-18T07:03:03.537Z,19.05
2023-04-18T07:04:03.752Z,18.00
2023-04-18T07:05:03.895Z,18.84
2023-04-18T07:06:04.112Z,19.46
2023-04-18T07:07:04.487Z,18.98
2023-04-18T07:08:04.720Z,19.31
2023-04-18T07:09:04.933Z,19.75
2023-04-18T07:10:05.264Z,20.18
2023-04-18T07:11:05.601Z,21.05
2023-04-18T07:12:05.968Z,21.26
2023-04-18T07:13:06.311Z,20.96
2023-04-18T07:14:06.545Z,21.36
2023-04-18T07:15:06.881Z,20.74
2023-04-18T07:16:07.206Z,20.25
2023-04-18T07:17:07.632Z,19.32
2023-04-18T07:18:07.897Z,18.79
2023-04-18T07:19:08.151Z,19.01
2023-04-18T07:20:08.395Z,20.06
2023-04-18T07:21:08.667Z,20.71
2023-04-18T07:22:08.835Z,21.21
2023-04-18T07:23:09.184Z,21.20
2023-04-18T07:24:09.417Z,21.63
2023-04-18T07:25:09.751Z,20.59
2023-04-18T07:26:10.050Z,20.18
2023-04-18T07:27:10.379Z,20.86
2023-04-18T07:28:10.671Z,20.87
2023-04-18T07:29:10.975Z,20.91
2023-04-18T07:30:11.317Z,21.44
2023-04-18T07:31:11.817Z,22.28
2023-04-18T07:32:12.006Z,21.83
2023-04-18T07:33:12.226Z,21.05
2023-04-18T07:34:12.786Z,19.78
2023-04-18T07:35:12.880Z,18.09
2023-04-18T07:36:13.231Z,18.77
2023-04-18T07:37:14.865Z,19.86
2023-04-18T07:38:13.711Z,18.97
2023-04-18T07:39:13.919Z,19.23
2023-04-18T07:40:14.242Z,20.18
2023-04-18T07:41:14.551Z,21.06
2023-04-18T07:42:14.858Z,20.81
2023-04-18T07:43:15.198Z,21.19
2023-04-18T07:44:15.753Z,20.51
2023-04-18T07:45:15.817Z,18.59
2023-04-18T07:46:16.193Z,17.30
2023-04-18T07:47:16.403Z,16.22
2023-04-18T07:48:16.768Z,15.60
2023-04-18T07:49:17.017Z,14.87
2023-04-18T07:50:17.112Z,14.46
2023-04-18T07:51:17.440Z,16.18
2023-04-18T07:52:17.737Z,17.81
2023-04-18T07:53:18.015Z,18.99
2023-04-18T07:54:18.322Z,19.95
2023-04-18T07:55:18.601Z,20.24
2023-04-18T07:56:18.933Z,19.25
2023-04-18T07:57:19.281Z,18.95
2023-04-18T07:58:19.557Z,18.25
2023-04-18T07:59:19.858Z,18.31
2023-04-18T08:00:20.170Z,18.09
2023-04-18T08:01:20.457Z,18.70
2023-04-18T08:02:20.867Z,18.82
2023-04-18T08:03:21.185Z,18.46
2023-04-18T08:04:21.392Z,18.25
2023-04-18T08:05:21.595Z,18.39
2023-04-18T08:06:21.909Z,19.02
2023-04-18T08:07:22.209Z,19.14
2023-04-18T08:08:22.549Z,19.48
2023-04-18T08:09:22.859Z,18.74
2023-04-18T08:10:23.890Z,18.52
2023-04-18T08:11:23.439Z,18.76
2023-04-18T08:12:23.785Z,19.05
2023-04-18T08:13:24.098Z,20.10
2023-04-18T08:14:24.396Z,21.21
2023-04-18T08:15:24.706Z,21.99
2023-04-18T08:16:25.112Z,21.35
2023-04-18T08:17:25.292Z,19.98
2023-04-18T08:18:25.596Z,18.90
2023-04-18T08:19:25.893Z,17.66
2023-04-18T08:20:26.203Z,15.94
2023-04-18T08:21:26.465Z,15.31
2023-04-18T08:22:26.805Z,14.87
2023-04-18T08:23:27.081Z,14.47
2023-04-18T08:24:27.378Z,14.14
2023-04-18T08:25:27.676Z,13.59
2023-04-18T08:26:27.935Z,13.41
2023-04-18T08:27:28.234Z,13.27
2023-04-18T08:28:28.550Z,12.92
2023-04-18T08:29:28.861Z,12.63
2023-04-18T08:30:29.226Z,12.59
2023-04-18T08:31:29.534Z,12.69
2023-04-18T08:32:29.844Z,12.54
2023-04-18T08:33:30.166Z,12.69
2023-04-18T08:34:30.477Z,12.77
2023-04-18T08:35:30.795Z,12.82
2023-04-18T08:36:31.052Z,12.87
2023-04-18T08:37:31.355Z,13.02
2023-04-18T08:38:31.663Z,13.30
2023-04-18T08:39:31.943Z,13.40
2023-04-18T08:40:32.251Z,13.46
2023-04-18T08:41:32.561Z,13.55
2023-04-18T08:42:32.846Z,13.63
2023-04-18T08:43:33.152Z,13.55
2023-04-18T08:44:33.429Z,13.55
2023-04-18T08:45:33.776Z,13.29
2023-04-18T08:46:34.028Z,13.09
2023-04-18T08:47:34.372Z,13.04
2023-04-18T08:48:34.647Z,12.97
2023-04-18T08:49:34.970Z,13.03
2023-04-18T08:50:35.301Z,13.27
2023-04-18T08:51:35.583Z,13.46
2023-04-18T08:52:35.870Z,13.59
2023-04-18T08:53:36.212Z,13.54
2023-04-18T08:54:36.529Z,13.43
2023-04-18T08:55:36.811Z,13.44
2023-04-18T08:56:37.074Z,13.40
2023-04-18T08:57:37.368Z,13.54
2023-04-18T08:58:37.670Z,13.07
2023-04-18T08:59:37.937Z,13.04
2023-04-18T09:00:38.210Z,13.02
2023-04-18T09:01:38.543Z,12.92
2023-04-18T09:02:39.186Z,12.78
2023-04-18T09:03:39.182Z,12.88
2023-04-18T09:04:39.444Z,12.69
2023-04-18T09:05:39.651Z,12.74
2023-04-18T09:06:39.945Z,12.82
2023-04-18T09:07:40.226Z,12.95
2023-04-18T09:08:40.564Z,13.06
2023-04-18T09:09:40.763Z,13.18
2023-04-18T09:10:41.073Z,13.32
2023-04-18T09:11:41.373Z,13.41
2023-04-18T09:12:41.703Z,13.27
2023-04-18T09:13:41.901Z,13.20
2023-04-18T09:14:42.197Z,13.21
2023-04-18T09:15:42.502Z,13.36
2023-04-18T09:16:42.846Z,13.32
2023-04-18T09:17:43.225Z,13.43
2023-04-18T09:18:43.531Z,13.43
2023-04-18T09:19:43.788Z,13.55
2023-04-18T09:20:44.147Z,13.54
2023-04-18T09:21:44.505Z,13.47
2023-04-18T09:22:44.711Z,13.56
2023-04-18T09:23:45.065Z,13.56
2023-04-18T09:24:45.323Z,13.63
2023-04-18T09:25:45.700Z,13.36
2023-04-18T09:26:45.947Z,13.11
2023-04-18T09:27:46.240Z,13.20
2023-04-18T09:28:46.540Z,13.36
2023-04-18T09:29:46.953Z,13.51
2023-04-18T09:30:47.218Z,13.55
2023-04-18T09:31:47.508Z,13.18
2023-04-18T09:32:47.868Z,13.22
2023-04-18T09:33:48.261Z,13.25
2023-04-18T09:34:48.424Z,13.40
2023-04-18T09:35:48.741Z,13.38
2023-04-18T09:36:49.069Z,13.40
2023-04-18T09:37:49.358Z,13.36
2023-04-18T09:38:49.673Z,13.32
2023-04-18T09:39:49.958Z,13.51
2023-04-18T09:40:50.289Z,13.56
2023-04-18T09:41:50.555Z,13.59
2023-04-18T09:42:50.819Z,13.55
2023-04-18T09:43:51.170Z,13.33
2023-04-18T09:44:51.408Z,13.36
2023-04-18T09:45:51.730Z,13.33
2023-04-18T09:46:52.035Z,13.36
2023-04-18T09:47:52.401Z,13.46
2023-04-18T09:48:52.644Z,13.38
2023-04-18T09:49:52.957Z,13.32
2023-04-18T09:50:53.237Z,13.41
2023-04-18T09:51:53.526Z,13.61
2023-04-18T09:52:53.831Z,13.88
2023-04-18T09:53:54.167Z,14.01
2023-04-18T09:54:54.474Z,14.06
2023-04-18T09:55:57.489Z,14.16
2023-04-18T09:56:55.073Z,14.14
2023-04-18T09:57:55.387Z,14.35
2023-04-18T09:58:55.717Z,14.64
2023-04-18T09:59:56.028Z,14.62
2023-04-18T10:00:56.310Z,14.43
2023-04-18T10:01:56.766Z,14.60
2023-04-18T10:02:56.975Z,14.61
2023-04-18T10:03:57.544Z,14.57
2023-04-18T10:04:57.578Z,14.17
2023-04-18T10:05:58.074Z,14.01
2023-04-18T10:06:58.158Z,14.17
2023-04-18T10:07:58.471Z,14.37
2023-04-18T10:08:58.820Z,14.42
2023-04-18T10:09:59.112Z,14.52
2023-04-18T10:10:59.397Z,14.49
2023-04-18T10:11:59.706Z,14.61
2023-04-18T10:13:00.039Z,14.80
2023-04-18T10:14:00.354Z,14.52
2023-04-18T10:15:00.667Z,14.37
2023-04-18T10:16:01.040Z,14.34
2023-04-18T10:17:01.280Z,14.50
2023-04-18T10:18:05.179Z,14.65
2023-04-18T10:19:01.885Z,14.67
2023-04-18T10:20:02.242Z,14.75
2023-04-18T10:21:02.512Z,14.87
2023-04-18T10:22:02.794Z,14.98
2023-04-18T10:23:03.079Z,14.95
2023-04-18T10:24:03.444Z,14.61
2023-04-18T10:25:03.732Z,14.68
2023-04-18T10:26:03.971Z,14.93
2023-04-18T10:27:04.241Z,15.11
2023-04-18T10:28:04.544Z,15.17
2023-04-18T10:29:04.870Z,15.19
2023-04-18T10:30:05.451Z,14.90
2023-04-18T10:31:05.390Z,14.86
2023-04-18T10:32:05.671Z,14.91
2023-04-18T10:33:12.699Z,14.81
2023-04-18T10:34:07.283Z,14.81
2023-04-18T10:35:06.613Z,14.80
2023-04-18T10:36:06.900Z,14.47
2023-04-18T10:37:07.208Z,14.35
2023-04-18T10:38:07.528Z,14.42
2023-04-18T10:39:07.835Z,14.39
2023-04-18T10:40:08.166Z,14.39
2023-04-18T10:41:08.446Z,14.57
2023-04-18T10:42:08.727Z,14.78
2023-04-18T10:43:09.010Z,14.75
2023-04-18T10:44:09.374Z,14.91
2023-04-18T10:45:09.641Z,14.94
2023-04-18T10:46:20.181Z,14.94
2023-04-18T10:47:11.233Z,15.02
2023-04-18T10:48:10.568Z,15.15
2023-04-18T10:49:10.884Z,15.21
2023-04-18T10:50:11.171Z,15.19
2023-04-18T10:51:11.448Z,15.02
2023-04-18T10:52:13.360Z,14.65
2023-04-18T10:53:11.972Z,14.49
2023-04-18T10:54:12.539Z,14.52
2023-04-18T10:55:12.489Z,14.43
2023-04-18T10:56:12.788Z,14.53
2023-04-18T10:57:13.110Z,14.72
2023-04-18T10:58:13.389Z,14.75
2023-04-18T10:59:13.720Z,14.37
2023-04-18T11:00:14.035Z,14.16
2023-04-18T11:01:14.487Z,14.19
2023-04-18T11:02:14.629Z,14.34
2023-04-18T11:03:14.964Z,14.52
2023-04-18T11:04:15.654Z,14.49
2023-04-18T11:05:15.649Z,14.49
2023-04-18T11:06:15.786Z,14.52
2023-04-18T11:07:16.058Z,14.54
2023-04-18T11:08:16.343Z,14.74
2023-04-18T11:09:16.702Z,14.95
2023-04-18T11:10:16.973Z,14.88
2023-04-18T11:11:17.283Z,14.98
2023-04-18T11:12:17.589Z,14.94
2023-04-18T11:13:17.881Z,15.15
2023-04-18T11:14:18.313Z,15.13
2023-04-18T11:15:18.467Z,15.17
2023-04-18T11:16:18.812Z,15.38
2023-04-18T11:17:19.060Z,15.59
2023-04-18T11:18:19.370Z,15.81
2023-04-18T11:19:19.648Z,15.92
2023-04-18T11:20:19.944Z,16.06
2023-04-18T11:21:20.264Z,16.06
2023-04-18T11:22:20.523Z,15.89
2023-04-18T11:23:20.784Z,15.94
2023-04-18T11:24:21.064Z,15.84
2023-04-18T11:25:21.373Z,15.43
2023-04-18T11:26:21.625Z,15.31
2023-04-18T11:27:21.892Z,15.33
2023-04-18T11:28:22.196Z,15.51
2023-04-18T11:29:22.494Z,15.56
2023-04-18T11:30:22.773Z,15.45
2023-04-18T11:31:23.076Z,15.31
2023-04-18T11:32:23.538Z,15.20
2023-04-18T11:33:23.708Z,15.03
2023-04-18T11:34:24.000Z,14.94
2023-04-18T11:35:24.262Z,14.90
2023-04-18T11:36:24.576Z,14.99
2023-04-18T11:37:31.878Z,15.06
2023-04-18T11:38:25.112Z,15.09
2023-04-18T11:39:25.409Z,15.11
2023-04-18T11:40:25.718Z,14.99
2023-04-18T11:41:26.007Z,14.88
2023-04-18T11:42:26.296Z,14.98
2023-04-18T11:43:26.591Z,15.17
2023-04-18T11:44:26.868Z,15.15
2023-04-18T11:45:27.211Z,15.13
2023-04-18T11:46:27.543Z,14.93
2023-04-18T11:47:27.842Z,14.93
2023-04-18T11:48:28.101Z,15.08
2023-04-18T11:49:28.415Z,15.12
2023-04-18T11:50:28.777Z,15.09
2023-04-18T11:51:29.059Z,15.24
2023-04-18T11:52:29.292Z,15.39
2023-04-18T11:53:29.612Z,15.51
2023-04-18T11:54:29.921Z,15.51
2023-04-18T11:55:30.303Z,15.57
2023-04-18T11:56:30.598Z,15.67
2023-04-18T11:57:30.944Z,15.66
2023-04-18T11:58:31.210Z,15.60
2023-04-18T11:59:31.522Z,15.54
2023-04-18T12:00:31.855Z,15.31
2023-04-18T12:01:32.152Z,15.19
2023-04-18T12:02:32.548Z,15.20
2023-04-18T12:03:33.938Z,15.41
2023-04-18T12:04:33.227Z,15.43
2023-04-18T12:05:33.670Z,15.41
2023-04-18T12:06:33.681Z,15.36
2023-04-18T12:07:33.954Z,15.46
2023-04-18T12:08:34.244Z,15.66
2023-04-18T12:09:34.528Z,15.85
2023-04-18T12:10:34.844Z,16.01
2023-04-18T12:11:35.271Z,15.97
2023-04-18T12:12:35.434Z,15.94
2023-04-18T12:13:35.738Z,15.99
2023-04-18T12:14:36.048Z,15.94
2023-04-18T12:15:36.463Z,16.12
2023-04-18T12:16:36.651Z,16.35
2023-04-18T12:17:36.961Z,16.53
2023-04-18T12:18:37.231Z,16.25
2023-04-18T12:19:37.519Z,16.18
2023-04-18T12:20:37.845Z,16.23
2023-04-18T12:21:38.121Z,16.23
2023-04-18T12:22:38.425Z,16.38
2023-04-18T12:23:38.729Z,16.35
2023-04-18T12:24:39.036Z,16.11
2023-04-18T12:25:39.358Z,16.12
2023-04-18T12:26:39.678Z,16.03
2023-04-18T12:27:39.971Z,16.00
2023-04-18T12:28:40.281Z,16.11
2023-04-18T12:29:40.594Z,16.12
2023-04-18T12:30:40.881Z,16.20
2023-04-18T12:31:41.202Z,16.23
2023-04-18T12:32:41.534Z,16.23
2023-04-18T12:33:41.759Z,16.30
2023-04-18T12:34:42.052Z,16.33
2023-04-18T12:35:42.342Z,16.45
2023-04-18T12:36:42.624Z,16.49
2023-04-18T12:37:42.910Z,16.45
2023-04-18T12:38:43.227Z,16.48
2023-04-18T12:39:43.556Z,16.31
2023-04-18T12:40:43.903Z,16.22
2023-04-18T12:41:44.185Z,16.01
2023-04-18T12:42:44.482Z,15.93
2023-04-18T12:43:44.757Z,16.06
2023-04-18T12:44:46.989Z,16.14
2023-04-18T12:45:45.392Z,16.15
2023-04-18T12:46:45.732Z,16.01
2023-04-18T12:47:46.060Z,15.93
2023-04-18T12:48:46.294Z,15.89
2023-04-18T12:49:46.586Z,15.75
2023-04-18T12:50:46.936Z,15.74
2023-04-18T12:51:47.221Z,15.81
2023-04-18T12:52:47.523Z,15.74
2023-04-18T12:53:47.806Z,15.81
2023-04-18T12:54:48.111Z,15.99
2023-04-18T12:55:48.415Z,16.12
2023-04-18T12:56:48.692Z,16.12
2023-04-18T12:57:48.976Z,16.15
2023-04-18T12:58:49.273Z,16.18
2023-04-18T12:59:49.554Z,16.20
2023-04-18T13:00:49.922Z,16.22
2023-04-18T13:01:50.213Z,16.25
2023-04-18T13:02:50.614Z,16.30
2023-04-18T13:03:59.954Z,16.30
2023-04-18T13:04:52.060Z,16.30
2023-04-18T13:05:51.426Z,16.26
2023-04-18T13:06:51.674Z,16.20
2023-04-18T13:07:54.087Z,16.09